This is the latest recevied weather packets stored in our database for station/object XW7RMR. If no packets are shown the sender has not sent any weather packets the latest 10 day(s).
| Time | Temp. | Humidity | Pressure | Rain* | Wind** | Luminosity | Snow |
|---|---|---|---|---|---|---|---|
| 1777880833 | 17.22° C | 71% | 1007.2 hPa | 0 mm | - | 0 W/m² | - |
| 1777880530 | 17.78° C | 70% | 1007.3 hPa | 0 mm | - | 0 W/m² | - |
| 1777880228 | 17.78° C | 69% | 1007 hPa | 0 mm | - | 0 W/m² | - |
| 1777879927 | 18.33° C | 67% | 1007.1 hPa | 0 mm | - | 0 W/m² | - |
| 1777879625 | 18.33° C | 66% | 1006.9 hPa | 0 mm | - | 0 W/m² | - |
| 1777879321 | 18.89° C | 64% | 1006.7 hPa | 0 mm | - | 0 W/m² | - |
| 1777879018 | 18.89° C | 65% | 1006.7 hPa | 0 mm | - | 0 W/m² | - |
| 1777878715 | 18.89° C | 64% | 1006.7 hPa | 0 mm | - | 0 W/m² | - |
| 1777878413 | 18.89° C | 64% | 1006.8 hPa | 0 mm | - | 0 W/m² | - |
| 1777878108 | 18.89° C | 64% | 1006.9 hPa | 0 mm | - | 0 W/m² | - |
| 1777877804 | 18.89° C | 63% | 1006.6 hPa | 0 mm | - | 0 W/m² | - |
| 1777877502 | 19.44° C | 63% | 1006.6 hPa | 0 mm | - | 0 W/m² | - |
| 1777877198 | 19.44° C | 62% | 1006.3 hPa | 0 mm | - | 0 W/m² | - |
| 1777876896 | 20.56° C | 58% | 1006.6 hPa | 0 mm | - | 0 W/m² | - |
| 1777876594 | 22.78° C | 47% | 1006.4 hPa | 0 mm | - | 0 W/m² | - |
| 1777876291 | 24.44° C | 42% | 1006.4 hPa | 0 mm | - | 0 W/m² | - |
| 1777875987 | 25° C | 36% | 1006.4 hPa | 0 mm | - | 0 W/m² | - |
| 1777875683 | 25° C | 36% | 1006.5 hPa | 0 mm | - | 0 W/m² | - |
| 1777875380 | 24.44° C | 35% | 1006.4 hPa | 0 mm | - | 0 W/m² | - |
| 1777875076 | 24.44° C | 36% | 1006.4 hPa | 0 mm | - | 0 W/m² | - |
| 1777874774 | 25° C | 35% | 1006.5 hPa | 0 mm | - | 0 W/m² | - |
| 1777874469 | 25.56° C | 36% | 1006.3 hPa | 0 mm | - | 0 W/m² | - |
| 1777874167 | 25.56° C | 34% | 1006.3 hPa | 0 mm | - | 0 W/m² | - |
| 1777873864 | 25° C | 35% | 1006.4 hPa | 0 mm | - | 0 W/m² | - |
| 1777873560 | 25° C | 36% | 1006.2 hPa | 0 mm | - | 0 W/m² | - |
* Rain latest hour (hover to see other rain measurements)
** Current wind speed in m/s (hover to see current wind gust speed)